Time;durP1;ratioP1;P1;durP2;ratioP2;P2;SDS_P1;SDS_P2;PMS_P1;PMS_P2;Temp;Humidity;BMP_temperature;BMP_pressure;BME280_temperature;BME280_humidity;BME280_pressure;Samples;Min_cycle;Max_cycle;Signal;HPM_P1;HPM_P2
2022/08/05 00:03:08;;;;;;;2.23;2.03;;;;;;;22.25;60.27;96461.94;10326667;28;20245;-26
2022/08/05 00:08:09;;;;;;;1.50;1.40;;;;;;;22.39;60.25;96440.41;10325505;28;20104;-25
2022/08/05 00:13:09;;;;;;;1.52;1.10;;;;;;;22.57;59.42;96434.13;10321868;28;20031;-26
2022/08/05 00:18:10;;;;;;;1.38;1.27;;;;;;;22.47;59.96;96433.47;10326358;28;20034;-26
2022/08/05 00:23:10;;;;;;;1.47;1.33;;;;;;;22.36;60.06;96421.75;10323503;28;20197;-26
2022/08/05 00:28:10;;;;;;;4.20;2.17;;;;;;;22.29;60.11;96428.72;10326102;28;20273;-26
2022/08/05 00:33:11;;;;;;;1.93;1.73;;;;;;;22.29;60.19;96433.81;10323025;28;20039;-27
2022/08/05 00:38:11;;;;;;;2.23;2.13;;;;;;;22.28;60.24;96446.56;10323849;28;20038;-26
2022/08/05 00:43:11;;;;;;;3.63;2.07;;;;;;;22.28;59.87;96437.22;10325441;28;20042;-27
2022/08/05 00:48:20;;;;;;;2.42;2.20;;;;;;;22.29;60.16;96433.81;10324365;28;20030;-26
2022/08/05 00:53:22;;;;;;;2.45;2.25;;;;;;;22.29;60.11;96433.81;10324387;28;20500;-26
2022/08/05 00:58:23;;;;;;;2.50;2.30;;;;;;;22.36;60.36;96435.38;10324235;28;20122;-26
2022/08/05 01:03:24;;;;;;;1.70;1.47;;;;;;;22.53;59.52;96443.56;10324235;28;20122;-26
2022/08/05 01:08:25;;;;;;;1.52;1.00;;;;;;;22.58;59.20;96451.13;10323746;28;20496;-26
2022/08/05 01:13:46;;;;;;;1.40;1.30;;;;;;;22.44;59.62;96450.53;10324831;28;20038;-27
2022/08/05 01:18:50;;;;;;;2.20;1.80;;;;;;;22.35;59.68;96464.31;10318642;28;20038;-25
2022/08/05 01:24:29;;;;;;;3.33;2.00;;;;;;;22.30;59.64;96475.47;10319683;28;20710;-26
2022/08/05 01:29:35;;;;;;;3.22;2.20;;;;;;;22.23;59.71;96473.91;10298970;28;20524;-25
2022/08/05 01:34:44;;;;;;;2.30;2.20;;;;;;;22.24;59.86;96491.69;10316307;28;20030;-26
2022/08/05 01:39:48;;;;;;;2.53;2.15;;;;;;;22.29;59.85;96489.06;10322709;28;20045;-25
2022/08/05 01:44:49;;;;;;;3.30;1.90;;;;;;;22.29;59.89;96479.72;10322420;28;20157;-26
2022/08/05 01:49:52;;;;;;;2.30;2.05;;;;;;;22.30;59.66;96485.69;10324050;28;20559;-26
2022/08/05 01:54:57;;;;;;;1.67;1.58;;;;;;;22.51;58.75;96496.34;10322408;28;20050;-25
2022/08/05 02:00:00;;;;;;;1.30;1.17;;;;;;;22.58;58.55;96495.31;10317921;28;20178;-25
2022/08/05 02:05:03;;;;;;;1.42;1.33;;;;;;;22.45;59.04;96496.44;10323951;28;20069;-26
2022/08/05 02:10:05;;;;;;;3.58;1.80;;;;;;;22.41;59.19;96491.44;10322556;28;20048;-25
2022/08/05 02:15:27;;;;;;;2.08;1.80;;;;;;;22.38;59.30;96492.28;10320061;28;20034;-26
2022/08/05 02:20:34;;;;;;;2.47;1.90;;;;;;;22.38;59.38;96488.88;10322727;28;20460;-25
2022/08/05 02:25:35;;;;;;;5.50;2.10;;;;;;;22.35;59.49;96481.31;10320669;28;20046;-26
2022/08/05 02:30:43;;;;;;;2.60;2.38;;;;;;;22.35;59.34;96494.91;10321296;28;20034;-26
2022/08/05 02:35:45;;;;;;;2.35;2.15;;;;;;;22.33;59.25;96478.78;10321182;28;20123;-26
2022/08/05 02:40:45;;;;;;;2.30;2.10;;;;;;;22.36;59.20;96475.34;10328499;28;20045;-27
2022/08/05 02:45:48;;;;;;;1.50;1.30;;;;;;;22.46;58.46;96464.97;10327139;28;20057;-26
2022/08/05 02:50:50;;;;;;;2.08;1.30;;;;;;;22.64;58.02;96461.22;10328727;28;20052;-25
2022/08/05 02:55:52;;;;;;;2.08;1.15;;;;;;;22.51;58.53;96463.19;10329622;28;20041;-26
2022/08/05 03:00:55;;;;;;;3.67;1.85;;;;;;;22.43;58.97;96459.94;10328284;28;20034;-26
2022/08/05 03:05:57;;;;;;;2.63;2.00;;;;;;;22.39;59.10;96453.16;10327938;28;20404;-25
2022/08/05 03:10:57;;;;;;;2.58;2.38;;;;;;;22.35;59.37;96453.25;10329109;28;20030;-26
2022/08/05 03:15:57;;;;;;;2.70;2.20;;;;;;;22.33;59.33;96450.72;10324311;28;20034;-26
2022/08/05 03:20:58;;;;;;;3.23;2.10;;;;;;;22.31;59.30;96449.91;10326939;28;20563;-26
2022/08/05 03:25:58;;;;;;;2.40;1.50;;;;;;;22.28;59.61;96447.44;10328651;28;20036;-26
2022/08/05 03:31:00;;;;;;;2.25;1.90;;;;;;;22.29;59.38;96444.00;10326779;28;20053;-26
2022/08/05 03:36:00;;;;;;;1.50;1.40;;;;;;;22.44;58.47;96453.94;10326948;28;20097;-27
2022/08/05 03:41:01;;;;;;;1.30;1.20;;;;;;;22.63;58.02;96444.19;10326418;28;20109;-27
2022/08/05 03:46:02;;;;;;;1.47;1.37;;;;;;;22.53;58.32;96433.34;10322023;28;20542;-27
2022/08/05 03:51:19;;;;;;;1.67;1.33;;;;;;;22.42;58.93;96440.41;10327003;28;20026;-25
2022/08/05 03:56:32;;;;;;;2.33;1.70;;;;;;;22.33;58.89;96429.50;10328820;28;20034;-25
2022/08/05 04:01:38;;;;;;;2.45;2.13;;;;;;;22.33;59.14;96430.31;10327532;28;20026;-26
2022/08/05 04:06:39;;;;;;;2.72;2.20;;;;;;;22.66;57.15;96452.63;10324206;28;20038;-25
2022/08/05 04:11:39;;;;;;;4.50;2.20;;;;;;;22.63;56.67;96452.72;10331087;28;20038;-25
2022/08/05 04:16:41;;;;;;;4.10;2.20;;;;;;;22.68;55.95;96438.16;10328670;28;20057;-24
2022/08/05 04:21:42;;;;;;;2.50;2.30;;;;;;;22.62;57.12;96456.13;10325791;28;20045;-25
2022/08/05 04:26:42;;;;;;;2.47;2.10;;;;;;;22.57;57.06;96470.69;10325497;28;20042;-25
2022/08/05 04:31:42;;;;;;;2.70;1.17;;;;;;;22.70;57.63;96491.69;10311488;28;20076;-25
2022/08/05 04:36:43;;;;;;;3.57;2.17;;;;;;;22.84;55.28;96540.75;10324096;28;20037;-25
2022/08/05 04:41:43;;;;;;;2.40;2.20;;;;;;;22.95;55.32;96578.00;10323984;28;20038;-25
2022/08/05 04:46:44;;;;;;;6.07;3.45;;;;;;;22.78;55.74;96592.78;10323725;28;20044;-27
2022/08/05 04:51:44;;;;;;;3.27;2.30;;;;;;;22.86;55.40;96597.75;10324607;28;20492;-25
2022/08/05 04:56:44;;;;;;;2.17;1.90;;;;;;;22.72;56.80;96605.66;10325534;28;20286;-28
2022/08/05 05:01:45;;;;;;;3.50;1.97;;;;;;;22.95;55.21;96625.66;10321044;28;20045;-26
2022/08/05 05:06:45;;;;;;;3.90;2.13;;;;;;;22.81;55.79;96622.53;10324248;28;20049;-25
2022/08/05 05:11:45;;;;;;;7.97;2.30;;;;;;;22.79;56.03;96624.25;10325586;28;20277;-25
2022/08/05 05:16:46;;;;;;;4.97;2.30;;;;;;;22.77;55.93;96626.84;10320613;28;20034;-25
2022/08/05 05:21:46;;;;;;;2.30;1.60;;;;;;;22.78;56.41;96627.66;10324029;28;20030;-24
2022/08/05 05:26:47;;;;;;;3.60;1.80;;;;;;;22.79;56.35;96632.75;10324270;28;20041;-25
2022/08/05 05:31:47;;;;;;;2.40;1.65;;;;;;;22.74;57.30;96649.84;10323062;28;20729;-25
2022/08/05 05:36:48;;;;;;;6.00;2.33;;;;;;;22.62;57.87;96657.75;10322449;28;20558;-25
2022/08/05 05:41:48;;;;;;;9.13;2.17;;;;;;;22.49;58.38;96656.25;10324391;28;20054;-26
2022/08/05 05:46:48;;;;;;;5.70;2.50;;;;;;;22.66;58.80;96659.34;10320595;28;20034;-25
2022/08/05 05:51:49;;;;;;;4.13;2.43;;;;;;;22.73;59.11;96660.94;10321985;28;20088;-26
2022/08/05 05:56:49;;;;;;;9.90;2.38;;;;;;;22.90;58.23;96669.13;10323625;28;20065;-25
2022/08/05 06:01:50;;;;;;;2.47;1.70;;;;;;;22.50;58.77;96660.47;10311307;28;20153;-25
2022/08/05 06:06:50;;;;;;;2.57;1.80;;;;;;;22.54;59.18;96668.94;10280961;28;20309;-25
2022/08/05 06:11:51;;;;;;;1.60;1.40;;;;;;;22.70;58.50;96666.09;10274878;28;20047;-24
2022/08/05 06:16:52;;;;;;;3.20;1.38;;;;;;;22.59;59.13;96657.81;10278490;28;20048;-27
2022/08/05 06:21:52;;;;;;;2.87;1.70;;;;;;;22.46;59.01;96656.31;10280741;28;20508;-26
2022/08/05 06:26:52;;;;;;;8.83;1.67;;;;;;;22.43;59.27;96656.38;10279065;28;20038;-25
2022/08/05 06:31:53;;;;;;;6.27;2.33;;;;;;;22.41;59.26;96652.16;10275683;28;20048;-25
2022/08/05 06:36:53;;;;;;;1.63;1.30;;;;;;;22.36;59.45;96670.06;10278672;28;20476;-26
2022/08/05 06:42:00;;;;;;;2.30;1.73;;;;;;;22.34;59.82;96661.59;10280598;28;20035;-25
2022/08/05 06:47:02;;;;;;;4.07;1.63;;;;;;;22.35;59.42;96670.94;10272350;28;20403;-27
2022/08/05 06:52:02;;;;;;;2.63;1.25;;;;;;;22.33;59.43;96692.22;10280488;28;20032;-27
2022/08/05 06:57:03;;;;;;;3.42;2.40;;;;;;;22.39;59.87;96705.72;10277149;28;20030;-27
2022/08/05 07:02:04;;;;;;;4.95;2.50;;;;;;;22.81;59.09;96710.16;10272245;28;20515;-27
2022/08/05 07:07:04;;;;;;;1.85;1.15;;;;;;;22.69;58.74;96705.25;10271049;28;20030;-27
2022/08/05 07:12:05;;;;;;;1.83;1.20;;;;;;;22.53;59.33;96721.69;10270611;28;20045;-27
2022/08/05 07:17:06;;;;;;;1.77;1.63;;;;;;;22.45;59.34;96730.31;10271500;28;20638;-26
2022/08/05 07:22:06;;;;;;;3.83;2.07;;;;;;;22.36;59.46;96731.28;10273921;28;20508;-27
2022/08/05 07:27:06;;;;;;;2.43;1.50;;;;;;;22.35;59.47;96734.72;10267590;28;20030;-26
2022/08/05 07:32:07;;;;;;;2.03;1.40;;;;;;;22.33;59.67;96726.22;10268234;28;20517;-26
2022/08/05 07:37:07;;;;;;;3.70;1.30;;;;;;;22.32;59.47;96729.63;10254473;28;20297;-31
2022/08/05 07:42:07;;;;;;;4.93;1.27;;;;;;;22.29;59.73;96722.03;10246208;28;20046;-26
2022/08/05 07:47:08;;;;;;;1.73;1.43;;;;;;;22.31;59.59;96733.03;10258227;28;20100;-27
2022/08/05 07:52:08;;;;;;;3.73;1.53;;;;;;;22.49;59.60;96727.69;10273593;28;20030;-27
2022/08/05 07:57:08;;;;;;;1.60;1.50;;;;;;;22.64;59.00;96730.00;10264291;28;20046;-26
2022/08/05 08:02:09;;;;;;;2.57;1.20;;;;;;;22.55;59.30;96731.88;10266635;28;20240;-24
2022/08/05 08:07:10;;;;;;;2.60;1.52;;;;;;;22.44;59.49;96708.22;10263219;28;20291;-25
2022/08/05 08:12:13;;;;;;;3.30;1.90;;;;;;;22.39;59.40;96685.31;10268391;28;20402;-25
2022/08/05 08:17:13;;;;;;;5.82;2.60;;;;;;;22.44;59.34;96677.59;10263973;28;20563;-25
2022/08/05 08:22:14;;;;;;;5.87;2.60;;;;;;;22.42;59.66;96685.31;10268070;28;20096;-26
2022/08/05 08:27:14;;;;;;;4.40;2.27;;;;;;;22.41;59.65;96685.31;10266621;28;20042;-25
2022/08/05 08:32:15;;;;;;;4.20;2.50;;;;;;;22.37;59.55;96693.84;10267955;28;20076;-26
2022/08/05 08:37:16;;;;;;;5.20;2.58;;;;;;;22.34;59.57;96697.31;10271903;28;20058;-26
2022/08/05 08:42:17;;;;;;;4.32;1.77;;;;;;;22.48;60.02;96672.44;10274458;28;20054;-25
2022/08/05 08:47:22;;;;;;;2.17;1.25;;;;;;;22.66;59.30;96664.47;10269297;28;20046;-25
2022/08/05 08:52:34;;;;;;;1.90;1.42;;;;;;;22.60;59.33;96658.63;10267541;28;20093;-26
2022/08/05 08:57:35;;;;;;;2.65;1.70;;;;;;;22.46;59.51;96653.75;10267293;28;20038;-29
2022/08/05 09:02:36;;;;;;;3.58;2.63;;;;;;;22.41;59.49;96637.69;10268695;28;20038;-27
2022/08/05 09:07:36;;;;;;;5.05;3.05;;;;;;;22.39;59.42;96654.69;10269324;28;20049;-26
2022/08/05 09:12:37;;;;;;;6.85;2.75;;;;;;;22.38;59.74;96637.72;10262631;28;20030;-27
2022/08/05 09:17:39;;;;;;;2.28;1.60;;;;;;;22.33;60.05;96621.63;10266775;28;20500;-27
2022/08/05 09:23:11;;;;;;;7.78;2.70;;;;;;;22.31;60.13;96623.38;10259952;28;20034;-27
2022/08/05 09:28:23;;;;;;;9.10;2.80;;;;;;;22.37;59.82;96609.66;10257016;28;20423;-26
2022/08/05 09:33:24;;;;;;;6.03;2.00;;;;;;;22.46;60.40;96604.44;10260716;28;20140;-26
2022/08/05 09:38:25;;;;;;;2.40;1.58;;;;;;;22.67;59.66;96591.31;10261879;28;20579;-25
2022/08/05 09:43:37;;;;;;;4.50;1.45;;;;;;;22.60;59.50;96590.59;10265748;28;20050;-27
2022/08/05 09:48:37;;;;;;;4.25;1.90;;;;;;;22.44;59.77;96581.50;10262463;28;20402;-25
2022/08/05 09:53:49;;;;;;;6.83;1.70;;;;;;;22.44;60.06;96578.97;10269158;28;20042;-27
2022/08/05 09:59:01;;;;;;;4.72;2.60;;;;;;;22.44;59.96;96584.06;10271137;28;20495;-26
2022/08/05 10:04:07;;;;;;;5.63;2.72;;;;;;;22.38;60.10;96570.53;10268386;28;20042;-27
2022/08/05 10:09:17;;;;;;;3.60;2.00;;;;;;;22.34;60.13;96567.22;10278872;28;20193;-27
2022/08/05 10:14:26;;;;;;;6.10;1.98;;;;;;;22.34;60.19;96559.56;10271758;28;20042;-27
2022/08/05 10:19:27;;;;;;;5.28;2.08;;;;;;;22.27;60.80;96547.78;10272778;28;20046;-27
2022/08/05 10:24:31;;;;;;;8.07;2.40;;;;;;;22.45;60.64;96542.38;10290097;28;20806;-26
2022/08/05 10:29:35;;;;;;;6.38;2.38;;;;;;;22.70;60.20;96535.09;10327815;28;20034;-26
2022/08/05 10:34:36;;;;;;;6.22;2.83;;;;;;;22.68;60.59;96542.78;10326015;28;20034;-25
2022/08/05 10:39:43;;;;;;;7.75;4.90;;;;;;;22.56;60.41;96537.91;10326380;28;20030;-26
2022/08/05 10:44:45;;;;;;;15.80;5.13;;;;;;;22.35;60.19;96530.63;10327104;28;20030;-26
2022/08/05 10:50:06;;;;;;;18.52;6.78;;;;;;;22.34;60.80;96534.06;10329543;28;20412;-26
2022/08/05 10:55:12;;;;;;;12.23;5.25;;;;;;;22.26;60.74;96530.78;10330332;28;20037;-26
2022/08/05 11:00:23;;;;;;;10.77;4.28;;;;;;;22.28;60.57;96523.94;10320997;28;20455;-26
2022/08/05 11:05:24;;;;;;;4.13;3.30;;;;;;;22.24;60.76;96522.31;10328296;28;20034;-25
2022/08/05 11:10:26;;;;;;;7.85;3.53;;;;;;;22.24;60.29;96512.09;10326005;28;20096;-26
2022/08/05 11:15:33;;;;;;;11.18;4.80;;;;;;;22.45;61.43;96511.75;10316026;28;20038;-25
2022/08/05 11:20:38;;;;;;;8.73;3.50;;;;;;;22.69;60.35;96516.41;10320613;28;20106;-26
2022/08/05 11:25:44;;;;;;;5.03;3.05;;;;;;;22.67;60.23;96528.34;10261794;28;20035;-26
2022/08/05 11:31:11;;;;;;;17.92;5.63;;;;;;;22.57;60.29;96537.03;10326956;28;20533;-26
2022/08/05 11:36:13;;;;;;;11.73;5.97;;;;;;;22.54;60.50;96544.75;10318247;28;20050;-26
2022/08/05 11:41:22;;;;;;;19.70;6.22;;;;;;;22.50;60.90;96547.38;10326929;28;20039;-27
2022/08/05 11:46:30;;;;;;;17.45;6.85;;;;;;;22.48;60.13;96551.69;10326426;28;20037;-26
2022/08/05 11:51:31;;;;;;;21.20;6.43;;;;;;;22.48;60.15;96549.13;10327564;28;20026;-26
2022/08/05 11:56:45;;;;;;;23.33;7.15;;;;;;;22.51;60.75;96549.94;10327879;28;20092;-27
2022/08/05 12:01:54;;;;;;;16.70;6.30;;;;;;;22.46;60.31;96538.94;10326399;28;20535;-26
2022/08/05 12:06:58;;;;;;;7.93;3.65;;;;;;;22.63;61.15;96547.13;10320455;28;20378;-26
2022/08/05 12:11:58;;;;;;;4.05;2.90;;;;;;;22.81;60.13;96546.78;10326969;28;20113;-26
2022/08/05 12:17:06;;;;;;;7.90;3.20;;;;;;;22.70;60.23;96541.03;10319358;28;20538;-26
2022/08/05 12:22:06;;;;;;;5.47;3.55;;;;;;;22.61;60.13;96545.47;10323121;28;20029;-26
2022/08/05 12:27:07;;;;;;;10.07;4.33;;;;;;;22.56;60.50;96539.63;10321735;28;20041;-26
2022/08/05 12:32:07;;;;;;;15.60;6.70;;;;;;;22.55;60.23;96540.50;10322414;28;20294;-24
2022/08/05 12:37:11;;;;;;;18.20;6.37;;;;;;;22.52;59.84;96541.41;10319364;28;20044;-26
2022/08/05 12:42:16;;;;;;;13.18;5.75;;;;;;;22.48;59.87;96542.31;10320855;28;20377;-26
2022/08/05 12:47:27;;;;;;;15.15;6.28;;;;;;;22.49;60.01;96554.19;10320739;28;20034;-26
2022/08/05 12:52:27;;;;;;;12.88;5.47;;;;;;;22.49;60.02;96559.28;10325205;28;20059;-25
2022/08/05 12:57:35;;;;;;;6.97;3.87;;;;;;;22.63;61.65;96561.59;10327846;28;20485;-25
2022/08/05 13:02:35;;;;;;;4.13;3.10;;;;;;;22.83;60.14;96565.44;10309635;28;20034;-26
2022/08/05 13:07:38;;;;;;;6.43;3.23;;;;;;;22.74;60.80;96565.63;10325999;28;20093;-25
2022/08/05 13:12:41;;;;;;;11.70;5.07;;;;;;;22.59;61.35;96560.84;10322347;28;20719;-25
2022/08/05 13:17:53;;;;;;;8.75;4.70;;;;;;;22.58;60.84;96558.28;10322042;28;20038;-26
2022/08/05 13:22:55;;;;;;;12.88;5.07;;;;;;;22.54;60.40;96543.91;10318603;28;20042;-25
2022/08/05 13:27:56;;;;;;;14.88;6.15;;;;;;;22.52;60.19;96545.66;10324645;28;20034;-25
2022/08/05 13:32:56;;;;;;;12.95;5.30;;;;;;;22.51;60.13;96541.41;10322560;28;20473;-32
2022/08/05 13:37:57;;;;;;;10.95;5.28;;;;;;;22.48;59.96;96532.09;10323284;28;20034;-26
2022/08/05 13:42:57;;;;;;;10.37;5.40;;;;;;;22.49;59.97;96528.69;10321789;28;20038;-27
2022/08/05 13:47:58;;;;;;;4.13;2.50;;;;;;;22.62;61.01;96530.13;10318205;28;20046;-26
2022/08/05 13:52:58;;;;;;;3.83;2.13;;;;;;;22.82;60.25;96502.50;10316757;28;20018;-26
2022/08/05 13:57:58;;;;;;;4.70;2.47;;;;;;;22.80;60.62;96524.66;10317640;28;20030;-27
2022/08/05 14:02:59;;;;;;;14.17;4.57;;;;;;;22.70;60.51;96522.31;10318246;28;20038;-26
2022/08/05 14:07:59;;;;;;;10.57;5.03;;;;;;;22.62;60.29;96529.28;10311726;28;20038;-26
2022/08/05 14:13:00;;;;;;;11.77;5.43;;;;;;;22.59;60.01;96520.00;10319080;28;20033;-27
2022/08/05 14:18:01;;;;;;;8.93;4.88;;;;;;;22.57;59.99;96529.38;10307152;28;20054;-26
2022/08/05 14:23:01;;;;;;;8.43;4.55;;;;;;;22.52;59.72;96522.69;10315731;28;20481;-27
2022/08/05 14:28:02;;;;;;;7.72;4.22;;;;;;;22.54;60.24;96520.94;10317440;28;20042;-26
2022/08/05 14:33:03;;;;;;;11.63;4.30;;;;;;;22.56;60.41;96519.22;10315661;28;20117;-26
2022/08/05 14:38:03;;;;;;;14.30;5.10;;;;;;;22.63;62.79;96516.50;10290512;28;20515;-27
2022/08/05 14:43:04;;;;;;;2.87;2.00;;;;;;;22.86;60.32;96513.50;10292192;28;20048;-26
2022/08/05 14:48:04;;;;;;;4.27;2.10;;;;;;;22.85;60.83;96517.78;10245405;28;20125;-26
2022/08/05 14:53:04;;;;;;;8.30;3.50;;;;;;;22.73;60.68;96520.56;10275207;28;20133;-27
2022/08/05 14:58:07;;;;;;;8.97;4.03;;;;;;;22.66;60.39;96513.88;10270945;28;20037;-27
2022/08/05 15:03:07;;;;;;;7.45;4.10;;;;;;;22.59;59.79;96514.91;10270297;28;20104;-26
2022/08/05 15:08:07;;;;;;;12.70;4.93;;;;;;;22.56;60.02;96507.28;10277823;28;20409;-25
2022/08/05 15:13:08;;;;;;;6.70;4.07;;;;;;;22.54;60.07;96501.38;10274899;28;20038;-26
2022/08/05 15:18:08;;;;;;;7.72;4.38;;;;;;;22.55;60.06;96509.88;10272476;28;20064;-26
2022/08/05 15:23:11;;;;;;;8.60;4.15;;;;;;;22.55;60.31;96513.25;10273329;28;20057;-28
2022/08/05 15:28:13;;;;;;;5.93;2.85;;;;;;;22.53;61.65;96504.81;10271124;28;20046;-27
2022/08/05 15:33:14;;;;;;;15.45;8.18;;;;;;;22.79;60.84;96517.88;10274540;28;20034;-27
2022/08/05 15:38:14;;;;;;;11.70;5.57;;;;;;;22.81;60.04;96518.69;10269577;28;20038;-27
2022/08/05 15:43:15;;;;;;;49.30;24.10;;;;;;;22.75;60.79;96546.88;10274561;28;20046;-26
2022/08/05 15:48:15;;;;;;;37.08;15.82;;;;;;;22.66;60.58;96557.28;10314701;28;20117;-26
2022/08/05 15:53:16;;;;;;;31.67;15.33;;;;;;;22.55;60.69;96558.38;10318902;28;20037;-26
2022/08/05 15:58:16;;;;;;;41.30;20.10;;;;;;;22.61;61.09;96564.19;10327011;28;20038;-26
2022/08/05 16:03:16;;;;;;;45.00;16.67;;;;;;;22.54;60.43;96570.28;10320454;28;20072;-26
2022/08/05 16:08:17;;;;;;;43.40;18.27;;;;;;;22.66;62.87;96579.41;10325956;28;20030;-26
2022/08/05 16:13:17;;;;;;;13.23;6.40;;;;;;;22.91;60.61;96589.13;10326312;28;20273;-27
2022/08/05 16:18:18;;;;;;;12.77;5.35;;;;;;;22.86;60.14;96601.16;10321002;28;20030;-26
2022/08/05 16:23:18;;;;;;;25.67;10.90;;;;;;;22.67;60.38;96602.38;10324867;28;20557;-26
2022/08/05 16:28:18;;;;;;;30.40;14.60;;;;;;;22.72;61.18;96610.75;10326316;28;20284;-26
2022/08/05 16:33:19;;;;;;;34.50;16.33;;;;;;;22.71;60.87;96614.19;10323392;28;20165;-26
2022/08/05 16:38:19;;;;;;;40.47;17.40;;;;;;;22.69;60.68;96618.50;10324830;28;20864;-26
2022/08/05 16:43:21;;;;;;;31.27;15.75;;;;;;;22.68;60.92;96616.81;10321556;28;20132;-26
2022/08/05 16:48:22;;;;;;;11.45;6.07;;;;;;;22.82;61.36;96625.03;10324838;28;20045;-26
2022/08/05 16:53:22;;;;;;;7.22;3.95;;;;;;;23.01;59.81;96631.50;10325231;28;20038;-26
2022/08/05 16:58:23;;;;;;;16.83;8.23;;;;;;;22.81;61.22;96641.22;10325022;28;20049;-27
2022/08/05 17:03:23;;;;;;;10.77;6.90;;;;;;;22.74;60.55;96642.19;10319432;28;20034;-27
2022/08/05 17:08:23;;;;;;;15.53;9.10;;;;;;;22.71;60.98;96652.47;10321807;28;20030;-27
2022/08/05 17:13:24;;;;;;;17.75;10.38;;;;;;;22.74;61.19;96656.69;10313979;28;20045;-27
2022/08/05 17:18:25;;;;;;;18.10;8.25;;;;;;;22.60;60.85;96669.69;10318067;28;20421;-27
2022/08/05 17:23:25;;;;;;;17.00;6.73;;;;;;;22.67;60.87;96667.88;10318599;28;20046;-27
2022/08/05 17:28:26;;;;;;;18.73;9.63;;;;;;;22.71;61.75;96683.09;10315125;28;20418;-27
2022/08/05 17:33:27;;;;;;;5.95;3.80;;;;;;;22.85;61.04;96682.84;10316449;28;20298;-26
2022/08/05 17:38:27;;;;;;;5.57;3.50;;;;;;;22.98;60.40;96703.03;10318537;28;20161;-27
2022/08/05 17:43:28;;;;;;;12.87;5.90;;;;;;;22.83;61.32;96713.50;10320432;28;20045;-27
2022/08/05 17:48:28;;;;;;;10.90;6.23;;;;;;;22.72;60.49;96709.47;10323402;28;20041;-27
2022/08/05 17:53:29;;;;;;;14.90;6.80;;;;;;;22.69;60.72;96715.47;10323328;28;20290;-26
2022/08/05 17:58:29;;;;;;;10.67;6.60;;;;;;;22.66;60.51;96724.88;10324314;28;20048;-26
2022/08/05 18:03:29;;;;;;;10.23;6.50;;;;;;;22.67;60.58;96727.44;10313756;28;20624;-26
2022/08/05 18:08:31;;;;;;;11.00;5.88;;;;;;;22.65;60.34;96741.91;10324014;28;20512;-26
2022/08/05 18:13:32;;;;;;;14.13;7.57;;;;;;;22.61;60.34;96737.72;10332767;28;20035;-26
2022/08/05 18:18:32;;;;;;;5.37;3.10;;;;;;;22.87;60.94;96765.38;10324287;28;20037;-26
2022/08/05 18:23:33;;;;;;;3.95;3.00;;;;;;;22.98;60.05;96783.94;10325506;28;20034;-26
2022/08/05 18:28:37;;;;;;;4.75;3.35;;;;;;;22.79;61.00;96798.69;10325757;28;20089;-26
2022/08/05 18:33:38;;;;;;;6.60;4.35;;;;;;;22.76;61.24;96814.06;10323631;28;20034;-26
2022/08/05 18:38:38;;;;;;;10.47;5.87;;;;;;;22.72;61.27;96837.94;10322060;28;20489;-27
2022/08/05 18:43:38;;;;;;;10.00;5.80;;;;;;;22.74;60.73;96850.69;10315935;28;20124;-26
2022/08/05 18:48:39;;;;;;;6.87;4.80;;;;;;;22.71;60.46;96846.47;10321868;28;20037;-27
2022/08/05 18:53:39;;;;;;;4.63;3.43;;;;;;;22.69;60.90;96843.09;10319233;28;20034;-26
2022/08/05 18:58:39;;;;;;;4.05;3.38;;;;;;;22.80;61.33;96837.81;10320724;28;20045;-27
2022/08/05 19:03:41;;;;;;;5.70;3.30;;;;;;;23.01;60.53;96840.91;10322168;28;20042;-27
2022/08/05 19:08:42;;;;;;;4.70;2.60;;;;;;;22.89;60.93;96856.41;10322307;28;20048;-27
2022/08/05 19:13:42;;;;;;;5.07;3.20;;;;;;;22.77;60.66;96869.34;10326155;28;20378;-26
2022/08/05 19:18:42;;;;;;;9.20;3.43;;;;;;;22.74;61.00;96877.03;10322768;28;20034;-26
2022/08/05 19:23:44;;;;;;;7.17;3.90;;;;;;;22.66;60.67;96873.75;10322441;28;20030;-27
2022/08/05 19:28:44;;;;;;;8.38;4.05;;;;;;;22.68;60.27;96889.91;10319643;28;20054;-26
2022/08/05 19:33:45;;;;;;;4.63;2.23;;;;;;;22.53;61.22;96902.88;10324921;28;20042;-26
2022/08/05 19:38:45;;;;;;;8.38;3.30;;;;;;;22.72;61.80;96909.41;10323830;28;20303;-27
2022/08/05 19:43:45;;;;;;;3.73;2.70;;;;;;;22.95;60.53;96912.50;10321589;28;20046;-27
2022/08/05 19:48:45;;;;;;;4.53;2.60;;;;;;;23.00;60.07;96923.47;10320681;28;20038;-27
2022/08/05 19:53:46;;;;;;;5.03;2.47;;;;;;;22.82;60.73;96921.19;10322690;28;20518;-26
2022/08/05 19:58:46;;;;;;;3.43;2.43;;;;;;;22.77;60.23;96928.06;10322766;28;20042;-27
2022/08/05 20:03:47;;;;;;;5.07;3.43;;;;;;;22.74;60.25;96933.19;10319168;28;20028;-26
2022/08/05 20:08:47;;;;;;;4.83;3.57;;;;;;;22.72;59.96;96940.03;10312868;28;20030;-27
2022/08/05 20:13:48;;;;;;;6.40;3.38;;;;;;;22.70;60.21;96949.44;10314208;28;20627;-26
2022/08/05 20:18:48;;;;;;;6.03;3.67;;;;;;;22.70;60.51;96946.03;10316875;28;20043;-27
2022/08/05 20:23:49;;;;;;;3.70;2.90;;;;;;;22.76;61.84;96956.16;10316147;28;20297;-26
2022/08/05 20:28:52;;;;;;;3.25;2.50;;;;;;;23.01;60.28;96958.38;10313279;28;20285;-26
2022/08/05 20:33:53;;;;;;;3.22;2.40;;;;;;;22.91;60.58;96964.44;10316065;28;20057;-26
2022/08/05 20:38:53;;;;;;;2.60;2.28;;;;;;;22.79;60.43;96966.31;10323897;28;20053;-26
2022/08/05 20:43:54;;;;;;;3.93;2.83;;;;;;;22.74;60.04;96979.16;10321576;28;20492;-26
2022/08/05 20:48:55;;;;;;;4.25;3.20;;;;;;;22.71;60.14;96989.41;10321846;28;20417;-26
2022/08/05 20:53:55;;;;;;;4.63;3.17;;;;;;;22.72;60.39;96980.06;10316197;28;20096;-26
2022/08/05 20:58:55;;;;;;;6.23;3.13;;;;;;;22.69;60.08;96975.84;10320257;28;20034;-27
2022/08/05 21:03:56;;;;;;;6.03;3.33;;;;;;;22.69;60.16;96991.16;10320716;28;20512;-26
2022/08/05 21:08:56;;;;;;;4.63;2.73;;;;;;;22.74;62.26;96981.69;10322872;28;20040;-26
2022/08/05 21:13:56;;;;;;;2.93;2.23;;;;;;;22.98;60.14;96981.38;10322453;28;20117;-27
2022/08/05 21:18:59;;;;;;;2.23;1.90;;;;;;;22.95;60.65;96984.00;10324956;28;20030;-27
2022/08/05 21:23:59;;;;;;;3.63;2.42;;;;;;;22.80;60.43;96981.63;10322472;28;20101;-27
2022/08/05 21:28:59;;;;;;;3.58;2.47;;;;;;;22.77;60.36;97004.66;10324683;28;20030;-26
2022/08/05 21:34:00;;;;;;;3.33;2.93;;;;;;;22.75;60.23;97006.38;10320804;28;20030;-27
2022/08/05 21:39:00;;;;;;;3.07;2.50;;;;;;;22.75;60.29;97008.91;10323547;28;20391;-27
2022/08/05 21:44:01;;;;;;;3.43;2.63;;;;;;;22.75;60.57;97015.75;10326627;28;20034;-27
2022/08/05 21:49:03;;;;;;;3.55;2.85;;;;;;;22.74;60.47;97019.16;10329609;28;20034;-28
2022/08/05 21:54:03;;;;;;;3.50;2.60;;;;;;;22.75;61.46;97021.69;10334195;28;20026;-27
2022/08/05 21:59:03;;;;;;;2.50;2.03;;;;;;;23.00;60.21;97023.06;10332754;28;20038;-26
2022/08/05 22:04:04;;;;;;;2.83;1.90;;;;;;;23.05;59.77;97036.63;10329733;28;20030;-26
2022/08/05 22:09:05;;;;;;;3.87;2.20;;;;;;;22.97;60.68;97033.34;10332809;28;20030;-27
2022/08/05 22:14:05;;;;;;;5.22;2.95;;;;;;;22.93;61.27;97039.34;10330741;28;20037;-26
2022/08/05 22:19:06;;;;;;;3.75;3.40;;;;;;;22.93;61.16;97041.91;10330884;28;20092;-25
2022/08/05 22:29:25;;;;;;;4.28;3.05;;;;;;;22.87;60.38;97057.28;10328773;28;20296;-26
2022/08/05 22:34:26;;;;;;;3.20;2.90;;;;;;;22.89;60.89;97060.66;10331788;28;20125;-26
2022/08/05 22:39:27;;;;;;;3.43;2.97;;;;;;;22.87;60.21;97066.66;10329869;28;20035;-26
2022/08/05 22:44:28;;;;;;;2.42;2.22;;;;;;;23.00;59.49;97074.16;10329313;28;20814;-27
2022/08/05 22:49:28;;;;;;;2.63;2.13;;;;;;;23.10;58.92;97080.00;10329245;28;20041;-27
2022/08/05 22:54:29;;;;;;;3.58;2.88;;;;;;;22.98;59.60;97086.09;10329892;28;20125;-27
2022/08/05 22:59:29;;;;;;;4.63;2.73;;;;;;;22.87;59.92;97080.28;10329653;28;20034;-26
2022/08/05 23:04:30;;;;;;;4.65;2.88;;;;;;;22.81;59.79;97077.78;10327385;28;20045;-27
2022/08/05 23:09:30;;;;;;;2.80;2.57;;;;;;;22.81;59.95;97082.88;10328990;28;20496;-27
2022/08/05 23:14:30;;;;;;;3.00;2.58;;;;;;;22.76;59.77;97079.56;10327751;28;20034;-26
2022/08/05 23:19:31;;;;;;;5.20;3.43;;;;;;;22.76;59.72;97089.78;10323453;28;20034;-27
2022/08/05 23:24:31;;;;;;;3.40;2.77;;;;;;;22.76;59.82;97081.25;10328990;28;20034;-27
2022/08/05 23:29:32;;;;;;;3.17;2.60;;;;;;;22.77;59.47;97078.69;10326874;28;20307;-26